Anselmo, Nebraska
Current Conditions -  °F | °C
As of 9:53 AM on Sunday 21 Dec 2014 (Local Time) from KBBW Reporting Station
Clear Clear  
Wind Chill: 32°   Ceiling: Unl
Heat Index: 32°   Visibility: 7mi
Dew Point: 29°   Wind: 0mph
Humidity: 88%   Direction: NA
Pressure: 29.7"   Gusts: NA
Location:  41.62°N, 99.87°W
Report Text: KBBW 211553Z AUTO 00000KT 7SM CLR 00/M02 A2970 RMK AO2 SLP078 T00001017
Loading
Personal Weather Stations






























Interactive Weather Map New forecast layout! Learn more

10-Day Weather Forecast

Advertisements
Track Severe Weather on mobile